createdAt,value
2023-02-09T00:01:16.789Z,31.55
2023-02-09T00:03:43.794Z,33.23
2023-02-09T00:06:13.545Z,32.47
2023-02-09T00:08:40.053Z,34.30
2023-02-09T00:11:17.961Z,32.40
2023-02-09T00:13:44.779Z,34.58
2023-02-09T00:16:11.889Z,32.85
2023-02-09T00:18:38.517Z,34.28
2023-02-09T00:21:09.491Z,33.47
2023-02-09T00:23:39.506Z,34.15
2023-02-09T00:26:08.982Z,34.83
2023-02-09T00:28:36.061Z,33.80
2023-02-09T00:31:11.298Z,35.08
2023-02-09T00:33:38.088Z,35.05
2023-02-09T00:36:06.582Z,35.55
2023-02-09T00:38:34.187Z,34.58
2023-02-09T00:41:00.669Z,36.20
2023-02-09T00:43:27.208Z,37.38
2023-02-09T00:45:53.759Z,37.58
2023-02-09T00:48:20.226Z,36.83
2023-02-09T00:50:46.853Z,37.72
2023-02-09T00:53:13.447Z,36.45
2023-02-09T00:55:39.848Z,37.17
2023-02-09T00:58:06.249Z,35.83
2023-02-09T01:00:32.852Z,36.78
2023-02-09T01:02:59.403Z,36.80
2023-02-09T01:05:26.306Z,35.38
2023-02-09T01:07:53.159Z,36.50
2023-02-09T01:10:19.599Z,36.40
2023-02-09T01:12:46.167Z,35.78
2023-02-09T01:15:13.024Z,37.35
2023-02-09T01:17:40.139Z,35.05
2023-02-09T01:20:09.873Z,34.85
2023-02-09T01:22:36.916Z,36.40
2023-02-09T01:25:04.674Z,36.35
2023-02-09T01:27:31.146Z,35.75
2023-02-09T01:29:57.654Z,37.05
2023-02-09T01:32:24.231Z,34.97
2023-02-09T01:34:52.237Z,35.80
2023-02-09T01:37:18.689Z,36.10
2023-02-09T01:39:45.140Z,36.35
2023-02-09T01:42:20.910Z,36.53
2023-02-09T01:44:47.252Z,35.97
2023-02-09T01:47:18.583Z,34.80
2023-02-09T01:49:50.055Z,36.25
2023-02-09T01:52:21.044Z,36.55
2023-02-09T01:54:55.297Z,36.55
2023-02-09T01:57:34.016Z,35.25
2023-02-09T02:00:18.050Z,36.22
2023-02-09T02:02:47.978Z,35.55
2023-02-09T02:05:15.231Z,35.45
2023-02-09T02:08:00.480Z,35.58
2023-02-09T02:10:26.940Z,35.35
2023-02-09T02:12:54.699Z,35.00
2023-02-09T02:15:30.991Z,37.00
2023-02-09T02:18:09.636Z,35.33
2023-02-09T02:21:13.819Z,35.65
2023-02-09T02:23:59.011Z,35.33
2023-02-09T02:26:48.389Z,35.83
2023-02-09T02:29:50.158Z,35.88
2023-02-09T02:32:32.878Z,35.25
2023-02-09T02:35:06.422Z,36.58
2023-02-09T02:37:38.585Z,35.53
2023-02-09T02:40:40.597Z,36.40
2023-02-09T02:43:22.836Z,35.92
2023-02-09T02:45:59.877Z,35.70
2023-02-09T02:48:47.734Z,36.72
2023-02-09T02:51:27.587Z,35.78
2023-02-09T02:53:57.809Z,36.40
2023-02-09T02:56:29.194Z,35.90
2023-02-09T02:58:59.333Z,35.33
2023-02-09T03:01:31.009Z,34.50
2023-02-09T03:03:59.820Z,34.20
2023-02-09T03:06:26.300Z,34.28
2023-02-09T03:08:55.064Z,33.75
2023-02-09T03:11:24.630Z,33.83
2023-02-09T03:14:06.000Z,33.30
2023-02-09T03:16:59.486Z,33.75
2023-02-09T03:20:20.329Z,34.15
2023-02-09T03:22:51.307Z,31.98
2023-02-09T03:25:31.442Z,31.25
2023-02-09T03:28:03.108Z,33.28
2023-02-09T03:30:31.908Z,33.17
2023-02-09T03:32:58.626Z,33.45
2023-02-09T03:35:31.465Z,31.60
2023-02-09T03:37:58.002Z,32.85
2023-02-09T03:40:24.424Z,32.55
2023-02-09T03:42:50.903Z,32.05
2023-02-09T03:45:17.461Z,31.08
2023-02-09T03:47:43.858Z,32.25
2023-02-09T03:50:10.430Z,31.33
2023-02-09T03:52:36.906Z,32.13
2023-02-09T03:55:03.351Z,32.13
2023-02-09T03:57:29.767Z,30.92
2023-02-09T03:59:56.220Z,30.95
2023-02-09T04:02:22.752Z,30.65
2023-02-09T04:04:49.139Z,31.42
2023-02-09T04:07:15.853Z,29.48
2023-02-09T04:09:42.277Z,31.85
2023-02-09T04:12:08.687Z,30.52
2023-02-09T04:14:35.142Z,30.33
2023-02-09T04:17:01.724Z,31.52
2023-02-09T04:19:28.221Z,31.30
2023-02-09T04:21:54.757Z,30.55
2023-02-09T04:24:21.866Z,30.50
2023-02-09T04:26:48.503Z,30.95
2023-02-09T04:29:14.919Z,31.05
2023-02-09T04:31:41.397Z,30.20
2023-02-09T04:34:07.971Z,30.98
2023-02-09T04:36:34.407Z,30.95
2023-02-09T04:39:00.877Z,30.75
2023-02-09T04:41:27.373Z,29.92
2023-02-09T04:43:53.845Z,30.25
2023-02-09T04:46:20.350Z,29.48
2023-02-09T04:48:46.816Z,30.23
2023-02-09T04:51:13.992Z,29.48
2023-02-09T04:53:40.556Z,29.13
2023-02-09T04:56:07.040Z,29.40
2023-02-09T04:58:52.224Z,30.23
2023-02-09T05:01:21.884Z,30.13
2023-02-09T05:03:48.333Z,29.63
2023-02-09T05:06:14.833Z,29.25
2023-02-09T05:08:41.229Z,30.58
2023-02-09T05:11:07.786Z,30.83
2023-02-09T05:13:34.537Z,29.48
2023-02-09T05:16:08.439Z,28.73
2023-02-09T05:18:35.954Z,29.15
2023-02-09T05:21:02.601Z,29.70
2023-02-09T05:23:29.182Z,28.85
2023-02-09T05:25:56.581Z,29.30
2023-02-09T05:28:24.474Z,29.20
2023-02-09T05:30:53.793Z,28.98
2023-02-09T05:33:24.950Z,28.53
2023-02-09T05:35:52.690Z,28.52
2023-02-09T05:38:19.256Z,28.95
2023-02-09T05:40:45.707Z,28.20
2023-02-09T05:43:12.281Z,28.05
2023-02-09T05:45:39.064Z,28.60
2023-02-09T05:48:05.794Z,29.23
2023-02-09T05:50:32.271Z,28.38
2023-02-09T05:53:00.140Z,29.60
2023-02-09T05:55:27.139Z,27.95
2023-02-09T05:57:53.607Z,28.65
2023-02-09T06:00:20.803Z,28.20
2023-02-09T06:02:47.309Z,27.38
2023-02-09T06:05:13.798Z,28.13
2023-02-09T06:07:40.232Z,28.00
2023-02-09T06:10:06.993Z,27.83
2023-02-09T06:12:33.408Z,28.23
2023-02-09T06:14:59.802Z,28.02
2023-02-09T06:17:26.276Z,29.13
2023-02-09T06:19:52.715Z,28.75
2023-02-09T06:22:20.314Z,29.30
2023-02-09T06:24:46.810Z,28.67
2023-02-09T06:27:13.638Z,28.25
2023-02-09T06:29:40.371Z,27.65
2023-02-09T06:32:07.052Z,27.48
2023-02-09T06:34:33.637Z,27.15
2023-02-09T06:37:00.152Z,26.67
2023-02-09T06:39:26.657Z,25.55
2023-02-09T06:41:53.106Z,26.10
2023-02-09T06:44:19.745Z,26.27
2023-02-09T06:46:46.322Z,25.83
2023-02-09T06:49:12.899Z,25.40
2023-02-09T06:51:39.783Z,25.55
2023-02-09T06:54:06.213Z,25.73
2023-02-09T06:56:32.675Z,25.70
2023-02-09T06:58:59.115Z,24.60
2023-02-09T07:01:25.578Z,24.10
2023-02-09T07:03:52.017Z,25.42
2023-02-09T07:06:21.218Z,26.70
2023-02-09T07:08:49.411Z,31.13
2023-02-09T07:11:17.682Z,26.00
2023-02-09T07:13:44.280Z,26.25
2023-02-09T07:16:11.796Z,25.60
2023-02-09T07:18:38.492Z,22.88
2023-02-09T07:21:08.627Z,22.30
2023-02-09T07:23:35.761Z,22.85
2023-02-09T07:26:07.515Z,23.65
2023-02-09T07:28:35.373Z,24.13
2023-02-09T07:31:06.991Z,22.98
2023-02-09T07:33:34.793Z,23.58
2023-02-09T07:36:04.184Z,22.63
2023-02-09T07:38:30.724Z,18.30
2023-02-09T07:41:01.569Z,21.42
2023-02-09T07:43:28.349Z,21.45
2023-02-09T07:46:00.503Z,21.83
2023-02-09T07:48:27.161Z,21.65
2023-02-09T07:50:53.635Z,21.92
2023-02-09T07:53:20.067Z,21.00
2023-02-09T07:55:46.789Z,21.05
2023-02-09T07:58:14.831Z,20.58
2023-02-09T08:00:42.198Z,20.13
2023-02-09T08:03:09.035Z,20.63
2023-02-09T08:05:41.968Z,20.40
2023-02-09T08:08:08.390Z,20.88
2023-02-09T08:10:35.333Z,19.67
2023-02-09T08:13:04.960Z,20.08
2023-02-09T08:15:37.267Z,19.17
2023-02-09T08:18:12.842Z,18.70
2023-02-09T08:20:39.826Z,19.40
2023-02-09T08:23:12.777Z,18.60
2023-02-09T08:25:39.622Z,18.55
2023-02-09T08:28:06.761Z,18.50
2023-02-09T08:30:34.482Z,18.58
2023-02-09T08:33:01.238Z,17.88
2023-02-09T08:35:30.272Z,19.23
2023-02-09T08:38:00.544Z,17.95
2023-02-09T08:40:29.310Z,19.00
2023-02-09T08:42:55.769Z,17.83
2023-02-09T08:45:22.549Z,18.25
2023-02-09T08:47:49.097Z,18.27
2023-02-09T08:50:15.906Z,17.95
2023-02-09T08:52:42.761Z,18.30
2023-02-09T08:55:09.434Z,18.17
2023-02-09T08:57:44.151Z,18.48
2023-02-09T09:00:12.383Z,18.67
2023-02-09T09:02:38.921Z,17.50
2023-02-09T09:05:05.836Z,17.65
2023-02-09T09:07:32.211Z,18.08
2023-02-09T09:09:58.682Z,17.85
2023-02-09T09:12:25.162Z,20.55
2023-02-09T09:14:51.681Z,21.02
2023-02-09T09:17:18.241Z,18.27
2023-02-09T09:19:44.724Z,20.10
2023-02-09T09:22:11.124Z,18.42
2023-02-09T09:24:40.735Z,18.23
2023-02-09T09:27:10.512Z,19.10
2023-02-09T09:29:40.056Z,31.15
2023-02-09T09:32:07.314Z,32.50
2023-02-09T09:34:34.142Z,23.70
2023-02-09T09:37:00.670Z,18.25
2023-02-09T09:39:27.230Z,17.48
2023-02-09T09:41:59.678Z,17.58
2023-02-09T09:44:35.029Z,17.58
2023-02-09T09:47:08.497Z,17.55
2023-02-09T09:49:37.385Z,18.23
2023-02-09T09:52:36.077Z,21.40
2023-02-09T09:55:06.742Z,20.08
2023-02-09T09:57:38.275Z,19.38
2023-02-09T10:00:17.021Z,19.98
2023-02-09T10:02:44.564Z,16.48
2023-02-09T10:05:23.364Z,17.75
2023-02-09T10:08:28.221Z,15.13
2023-02-09T10:11:03.877Z,16.73
2023-02-09T10:13:33.441Z,18.27
2023-02-09T10:16:00.208Z,18.20
2023-02-09T10:18:29.225Z,18.02
2023-02-09T10:21:07.206Z,17.95
2023-02-09T10:24:02.546Z,18.23
2023-02-09T10:26:32.155Z,18.27
2023-02-09T10:29:22.235Z,16.83
2023-02-09T10:31:55.031Z,17.08
2023-02-09T10:34:33.377Z,15.90
2023-02-09T10:37:32.985Z,14.52
2023-02-09T10:40:25.515Z,14.50
2023-02-09T10:42:56.719Z,14.25
2023-02-09T10:45:36.917Z,14.70
2023-02-09T10:48:12.496Z,14.32
2023-02-09T10:50:58.536Z,15.00
2023-02-09T10:53:59.129Z,15.02
2023-02-09T10:59:14.033Z,14.55
2023-02-09T11:01:43.284Z,14.02
2023-02-09T11:04:15.782Z,14.52
2023-02-09T11:06:52.841Z,13.80
2023-02-09T11:09:25.083Z,14.07
2023-02-09T11:11:57.530Z,13.30
2023-02-09T11:14:27.888Z,13.73
2023-02-09T11:16:56.045Z,14.23
2023-02-09T11:19:44.493Z,13.73
2023-02-09T11:22:13.028Z,13.50
2023-02-09T11:24:46.130Z,12.85
2023-02-09T11:27:31.154Z,14.20
2023-02-09T11:30:33.240Z,13.35
2023-02-09T11:33:10.874Z,13.98
2023-02-09T11:35:50.774Z,14.27
2023-02-09T11:38:20.655Z,13.73
2023-02-09T11:40:57.526Z,14.38
2023-02-09T11:43:39.861Z,14.07
2023-02-09T11:46:19.608Z,13.23
2023-02-09T11:48:52.150Z,13.73
2023-02-09T11:51:20.927Z,13.40
2023-02-09T11:54:07.404Z,13.57
2023-02-09T11:56:42.214Z,14.25
2023-02-09T11:59:28.944Z,12.95
2023-02-09T12:02:08.202Z,14.30
2023-02-09T12:04:45.275Z,13.63
2023-02-09T12:07:18.718Z,12.95
2023-02-09T12:10:06.948Z,13.57
2023-02-09T12:12:57.848Z,14.00
2023-02-09T12:15:53.089Z,13.70
2023-02-09T12:18:32.995Z,13.48
2023-02-09T12:21:05.267Z,13.65
2023-02-09T12:23:35.987Z,13.20
2023-02-09T12:26:26.374Z,13.40
2023-02-09T12:29:21.300Z,14.60
2023-02-09T12:32:06.373Z,13.65
2023-02-09T12:34:49.660Z,13.43
2023-02-09T12:37:19.649Z,14.23
2023-02-09T12:40:07.449Z,14.02
2023-02-09T12:43:04.659Z,13.57
2023-02-09T12:45:34.070Z,13.15
2023-02-09T12:48:02.593Z,13.80
2023-02-09T12:50:44.297Z,13.68
2023-02-09T12:53:44.105Z,14.20
2023-02-09T12:56:12.574Z,14.43
2023-02-09T12:58:45.281Z,13.75
2023-02-09T13:01:16.205Z,13.32
2023-02-09T13:03:52.898Z,13.68
2023-02-09T13:06:36.433Z,13.32
2023-02-09T13:09:09.428Z,13.98
2023-02-09T13:12:19.924Z,13.65
2023-02-09T13:14:50.830Z,14.48
2023-02-09T13:17:39.577Z,14.60
2023-02-09T13:20:39.813Z,13.45
2023-02-09T13:23:33.387Z,14.25
2023-02-09T13:26:16.815Z,13.75
2023-02-09T13:28:43.349Z,13.40
2023-02-09T13:31:23.281Z,14.13
2023-02-09T13:33:55.753Z,14.60
2023-02-09T13:36:49.052Z,13.95
2023-02-09T13:39:24.664Z,13.95
2023-02-09T13:41:53.707Z,13.75
2023-02-09T13:44:22.709Z,13.93
2023-02-09T13:46:58.041Z,14.25
2023-02-09T13:49:26.007Z,14.15
2023-02-09T13:52:14.815Z,14.25
2023-02-09T13:54:42.358Z,13.57
2023-02-09T13:57:17.700Z,14.88
2023-02-09T13:59:44.521Z,13.77
2023-02-09T14:02:24.386Z,14.27
2023-02-09T14:04:56.101Z,13.82
2023-02-09T14:07:26.126Z,14.75
2023-02-09T14:10:01.269Z,14.32
2023-02-09T14:12:51.857Z,13.45
2023-02-09T14:18:21.622Z,12.95
2023-02-09T14:21:23.574Z,13.95
2023-02-09T14:24:12.635Z,14.93
2023-02-09T14:26:48.952Z,14.65
2023-02-09T14:29:25.717Z,13.07
2023-02-09T14:32:00.682Z,14.30
2023-02-09T14:34:37.461Z,14.60
2023-02-09T14:37:13.172Z,13.18
2023-02-09T14:39:57.120Z,14.07
2023-02-09T14:42:23.891Z,14.43
2023-02-09T14:44:54.643Z,12.75
2023-02-09T14:47:38.634Z,13.35
2023-02-09T14:50:16.086Z,14.02
2023-02-09T14:52:47.801Z,14.23
2023-02-09T14:55:25.066Z,14.38
2023-02-09T14:57:51.797Z,13.82
2023-02-09T15:00:29.129Z,14.38
2023-02-09T15:02:55.736Z,14.43
2023-02-09T15:05:24.054Z,14.10
2023-02-09T15:07:54.311Z,14.88
2023-02-09T15:10:28.750Z,14.18
2023-02-09T15:12:55.515Z,13.93
2023-02-09T15:15:23.708Z,13.88
2023-02-09T15:17:50.382Z,14.13
2023-02-09T15:20:25.918Z,13.93
2023-02-09T15:22:53.663Z,13.88
2023-02-09T15:25:20.281Z,13.43
2023-02-09T15:27:52.605Z,13.25
2023-02-09T15:30:23.472Z,13.50
2023-02-09T15:32:49.974Z,13.70
2023-02-09T15:35:18.656Z,13.93
2023-02-09T15:37:52.384Z,12.88
2023-02-09T15:41:05.839Z,14.55
2023-02-09T15:43:51.436Z,14.35
2023-02-09T15:46:36.938Z,14.10
2023-02-09T15:49:05.544Z,14.45
2023-02-09T15:51:36.491Z,14.18
2023-02-09T15:54:07.433Z,14.23
2023-02-09T15:56:36.254Z,13.93
2023-02-09T15:59:05.390Z,13.93
2023-02-09T16:01:35.871Z,14.50
2023-02-09T16:06:51.234Z,13.88
2023-02-09T16:09:21.766Z,14.48
2023-02-09T16:11:48.650Z,13.45
2023-02-09T16:14:17.858Z,13.65
2023-02-09T16:16:45.782Z,13.95
2023-02-09T16:19:13.010Z,13.65
2023-02-09T16:21:42.372Z,13.68
2023-02-09T16:24:18.490Z,13.70
2023-02-09T16:26:44.947Z,14.38
2023-02-09T16:29:14.323Z,14.15
2023-02-09T16:31:41.242Z,13.60
2023-02-09T16:34:08.066Z,13.38
2023-02-09T16:36:35.754Z,13.55
2023-02-09T16:39:03.484Z,14.35
2023-02-09T16:41:49.701Z,15.35
2023-02-09T16:44:17.674Z,14.18
2023-02-09T16:46:45.935Z,14.23
2023-02-09T16:49:26.811Z,13.60
2023-02-09T16:51:56.085Z,15.18
2023-02-09T16:54:22.851Z,14.13
2023-02-09T16:56:54.489Z,15.35
2023-02-09T16:59:21.275Z,14.40
2023-02-09T17:01:48.757Z,14.93
2023-02-09T17:04:15.344Z,14.25
2023-02-09T17:06:41.852Z,13.93
2023-02-09T17:09:15.707Z,14.80
2023-02-09T17:11:42.551Z,14.20
2023-02-09T17:14:09.227Z,14.00
2023-02-09T17:16:39.271Z,15.27
2023-02-09T17:19:13.605Z,13.60
2023-02-09T17:21:40.877Z,14.52
2023-02-09T17:24:17.464Z,15.35
2023-02-09T17:26:44.506Z,15.05
2023-02-09T17:29:11.437Z,15.05
2023-02-09T17:31:52.379Z,14.68
2023-02-09T17:34:20.629Z,15.52
2023-02-09T17:36:47.133Z,15.13
2023-02-09T17:39:14.025Z,14.25
2023-02-09T17:41:45.282Z,14.43
2023-02-09T17:44:31.923Z,15.02
2023-02-09T17:47:04.355Z,15.35
2023-02-09T17:49:30.806Z,14.95
2023-02-09T17:51:57.308Z,14.73
2023-02-09T17:54:23.811Z,15.02
2023-02-09T17:56:50.243Z,14.80
2023-02-09T17:59:19.858Z,15.20
2023-02-09T18:01:49.584Z,14.75
2023-02-09T18:04:22.143Z,15.40
2023-02-09T18:06:48.746Z,14.80
2023-02-09T18:09:15.307Z,15.95
2023-02-09T18:11:59.778Z,16.25
2023-02-09T18:14:27.084Z,17.33
2023-02-09T18:16:55.065Z,16.20
2023-02-09T18:19:23.048Z,16.60
2023-02-09T18:21:50.706Z,16.23
2023-02-09T18:24:18.764Z,17.02
2023-02-09T18:26:47.715Z,16.55
2023-02-09T18:29:14.390Z,17.98
2023-02-09T18:31:41.060Z,16.67
2023-02-09T18:34:07.940Z,17.63
2023-02-09T18:36:35.429Z,16.35
2023-02-09T18:39:02.051Z,17.48
2023-02-09T18:41:28.786Z,16.83
2023-02-09T18:43:56.227Z,17.33
2023-02-09T18:46:25.590Z,18.23
2023-02-09T18:48:51.990Z,18.45
2023-02-09T18:51:18.464Z,17.77
2023-02-09T18:53:44.905Z,17.70
2023-02-09T18:56:29.760Z,17.58
2023-02-09T18:58:56.253Z,18.38
2023-02-09T19:01:24.737Z,18.02
2023-02-09T19:03:52.391Z,19.33
2023-02-09T19:06:20.512Z,20.27
2023-02-09T19:08:48.397Z,20.15
2023-02-09T19:11:20.190Z,19.48
2023-02-09T19:14:05.913Z,19.85
2023-02-09T19:16:32.536Z,20.15
2023-02-09T19:18:59.145Z,20.50
2023-02-09T19:21:25.628Z,21.25
2023-02-09T19:23:53.985Z,20.35
2023-02-09T19:26:20.790Z,20.98
2023-02-09T19:28:48.231Z,21.02
2023-02-09T19:31:16.211Z,21.60
2023-02-09T19:33:42.698Z,21.08
2023-02-09T19:36:09.558Z,21.50
2023-02-09T19:38:35.989Z,21.70
2023-02-09T19:41:10.411Z,21.65
2023-02-09T19:43:40.354Z,21.30
2023-02-09T19:46:08.129Z,22.67
2023-02-09T19:48:34.615Z,21.95
2023-02-09T19:51:01.090Z,21.35
2023-02-09T19:53:27.634Z,21.20
2023-02-09T19:55:54.374Z,20.98
2023-02-09T19:58:23.799Z,22.20
2023-02-09T20:00:51.627Z,22.23
2023-02-09T20:03:18.760Z,21.95
2023-02-09T20:05:46.346Z,22.77
2023-02-09T20:08:15.821Z,20.85
2023-02-09T20:10:44.160Z,21.67
2023-02-09T20:13:12.506Z,22.10
2023-02-09T20:15:43.697Z,21.52
2023-02-09T20:18:11.417Z,22.35
2023-02-09T20:20:44.312Z,22.63
2023-02-09T20:23:10.981Z,23.13
2023-02-09T20:25:41.259Z,22.63
2023-02-09T20:28:08.237Z,22.38
2023-02-09T20:30:35.151Z,21.90
2023-02-09T20:33:01.576Z,22.83
2023-02-09T20:35:28.138Z,23.13
2023-02-09T20:37:54.579Z,22.83
2023-02-09T20:40:21.667Z,24.13
2023-02-09T20:43:06.632Z,22.75
2023-02-09T20:45:51.960Z,23.90
2023-02-09T20:48:19.503Z,23.15
2023-02-09T20:50:46.383Z,24.25
2023-02-09T20:53:13.143Z,22.85
2023-02-09T20:55:39.664Z,22.83
2023-02-09T20:58:06.227Z,23.08
2023-02-09T21:00:32.865Z,23.50
2023-02-09T21:02:59.340Z,24.75
2023-02-09T21:05:25.865Z,23.50
2023-02-09T21:07:52.447Z,24.10
2023-02-09T21:10:18.950Z,23.30
2023-02-09T21:12:46.593Z,24.15
2023-02-09T21:15:13.631Z,24.67
2023-02-09T21:17:47.188Z,23.55
2023-02-09T21:20:15.316Z,24.00
2023-02-09T21:22:41.722Z,24.05
2023-02-09T21:25:08.250Z,24.17
2023-02-09T21:27:37.703Z,23.30
2023-02-09T21:30:04.777Z,24.55
2023-02-09T21:32:34.811Z,24.08
2023-02-09T21:35:01.311Z,23.98
2023-02-09T21:37:31.263Z,24.42
2023-02-09T21:40:01.999Z,24.10
2023-02-09T21:42:30.748Z,23.83
2023-02-09T21:44:57.860Z,24.08
2023-02-09T21:47:37.027Z,23.63
2023-02-09T21:50:05.321Z,23.67
2023-02-09T21:52:34.304Z,24.13
2023-02-09T21:55:01.035Z,23.65
2023-02-09T21:57:27.988Z,25.42
2023-02-09T21:59:54.454Z,24.70
2023-02-09T22:02:21.299Z,23.23
2023-02-09T22:04:49.739Z,24.80
2023-02-09T22:07:16.437Z,24.80
2023-02-09T22:09:42.886Z,24.52
2023-02-09T22:12:09.456Z,24.42
2023-02-09T22:14:35.877Z,24.45
2023-02-09T22:17:02.426Z,24.27
2023-02-09T22:19:28.891Z,23.70
2023-02-09T22:21:57.965Z,24.80
2023-02-09T22:24:24.972Z,24.48
2023-02-09T22:26:51.402Z,24.77
2023-02-09T22:29:17.879Z,23.75
2023-02-09T22:31:44.852Z,25.27
2023-02-09T22:34:11.592Z,23.88
2023-02-09T22:36:39.838Z,25.35
2023-02-09T22:39:07.068Z,23.70
2023-02-09T22:41:33.523Z,23.58
2023-02-09T22:44:05.691Z,24.58
2023-02-09T22:46:35.052Z,22.88
2023-02-09T22:49:05.890Z,25.15
2023-02-09T22:51:34.150Z,23.20
2023-02-09T22:54:01.685Z,24.20
2023-02-09T22:56:29.348Z,24.10
2023-02-09T22:58:57.486Z,21.40
2023-02-09T23:01:24.254Z,22.25
2023-02-09T23:03:50.967Z,21.15
2023-02-09T23:06:20.792Z,20.08
2023-02-09T23:08:47.646Z,22.17
2023-02-09T23:11:16.937Z,21.33
2023-02-09T23:13:44.404Z,22.35
2023-02-09T23:16:26.181Z,21.80
2023-02-09T23:18:58.997Z,21.33
2023-02-09T23:21:28.260Z,21.85
2023-02-09T23:23:55.309Z,21.70
2023-02-09T23:26:22.047Z,22.10
2023-02-09T23:28:48.953Z,21.58
2023-02-09T23:31:18.501Z,22.77
2023-02-09T23:33:45.448Z,23.03
2023-02-09T23:36:15.022Z,22.35
2023-02-09T23:38:41.677Z,21.73
2023-02-09T23:41:16.979Z,22.42
2023-02-09T23:43:44.124Z,22.13
2023-02-09T23:46:13.582Z,22.98
2023-02-09T23:48:40.278Z,21.83
2023-02-09T23:51:11.147Z,21.92
2023-02-09T23:53:37.698Z,22.85
2023-02-09T23:56:04.672Z,23.08
2023-02-09T23:58:39.293Z,22.33
